Time;durP1;ratioP1;P1;durP2;ratioP2;P2;SDS_P1;SDS_P2;PMS_P1;PMS_P2;Temp;Humidity;BMP_temperature;BMP_pressure;BME280_temperature;BME280_humidity;BME280_pressure;Samples;Min_cycle;Max_cycle;Signal;HPM_P1;HPM_P2
2021/08/06 00:01:43;;;;;;;5.37;2.77;;;;;;;;;;4927256;29;20413;-81
2021/08/06 00:04:24;;;;;;;2.70;2.50;;;;;;;;;;4996785;28;20477;-80
2021/08/06 00:06:50;;;;;;;5.13;3.23;;;;;;;;;;4996646;28;20442;-80
2021/08/06 00:09:36;;;;;;;4.03;2.57;;;;;;;;;;4996764;28;20531;-80
2021/08/06 00:12:02;;;;;;;2.77;2.57;;;;;;;;;;4979312;28;20422;-81
2021/08/06 00:14:34;;;;;;;3.90;2.70;;;;;;;;;;4996381;28;20412;-81
2021/08/06 00:17:06;;;;;;;3.40;3.00;;;;;;;;;;4996714;28;20388;-82
2021/08/06 00:19:32;;;;;;;3.37;2.90;;;;;;;;;;4996604;28;20410;-81
2021/08/06 00:21:58;;;;;;;3.57;2.60;;;;;;;;;;4996695;28;20840;-80
2021/08/06 00:24:24;;;;;;;4.70;2.80;;;;;;;;;;4995182;28;20404;-80
2021/08/06 00:26:50;;;;;;;3.40;3.10;;;;;;;;;;4996389;28;20381;-80
2021/08/06 00:29:22;;;;;;;5.23;2.60;;;;;;;;;;4996254;28;20501;-82
2021/08/06 00:31:50;;;;;;;3.63;3.00;;;;;;;;;;4996550;28;20741;-81
2021/08/06 00:34:16;;;;;;;3.10;2.80;;;;;;;;;;4978588;28;20945;-81
2021/08/06 00:37:09;;;;;;;5.77;2.83;;;;;;;;;;4996284;28;20385;-81
2021/08/06 00:39:40;;;;;;;3.60;2.93;;;;;;;;;;4996372;28;20473;-81
2021/08/06 00:42:12;;;;;;;2.73;2.40;;;;;;;;;;4996254;28;20824;-81
2021/08/06 00:44:38;;;;;;;2.97;2.37;;;;;;;;;;4995940;28;20834;-81
2021/08/06 00:47:04;;;;;;;3.80;2.80;;;;;;;;;;4978776;28;20829;-80
2021/08/06 00:49:31;;;;;;;2.50;2.30;;;;;;;;;;4996138;28;20468;-81
2021/08/06 00:51:57;;;;;;;3.30;2.87;;;;;;;;;;4996195;28;20411;-81
2021/08/06 00:54:23;;;;;;;3.10;2.47;;;;;;;;;;4995666;28;20377;-81
2021/08/06 00:56:50;;;;;;;2.77;2.57;;;;;;;;;;4996062;28;20415;-81
2021/08/06 00:59:16;;;;;;;2.97;2.77;;;;;;;;;;4995843;28;20409;-82
2021/08/06 01:02:32;;;;;;;3.67;2.37;;;;;;;;;;4995950;28;20385;-81
2021/08/06 01:05:04;;;;;;;3.53;2.97;;;;;;;;;;4990270;28;20510;-81
2021/08/06 01:07:48;;;;;;;2.73;2.53;;;;;;;;;;4995794;28;20382;-81
2021/08/06 01:10:17;;;;;;;7.17;2.77;;;;;;;;;;4995761;28;20828;-80
2021/08/06 01:12:57;;;;;;;2.60;2.30;;;;;;;;;;4995750;28;20414;-80
2021/08/06 01:15:27;;;;;;;6.73;2.90;;;;;;;;;;4995480;28;20477;-80
2021/08/06 01:17:53;;;;;;;2.80;2.57;;;;;;;;;;4995880;28;20385;-81
2021/08/06 01:20:22;;;;;;;3.00;2.63;;;;;;;;;;4995709;28;20792;-80
2021/08/06 01:22:55;;;;;;;2.43;2.23;;;;;;;;;;4995334;28;20494;-80
2021/08/06 01:25:51;;;;;;;5.40;2.70;;;;;;;;;;4995356;28;20444;-81
2021/08/06 01:28:19;;;;;;;3.10;2.80;;;;;;;;;;4979014;28;20919;-81
2021/08/06 01:30:45;;;;;;;2.90;2.70;;;;;;;;;;4995363;28;20451;-80
2021/08/06 01:33:12;;;;;;;3.53;2.67;;;;;;;;;;4995140;28;20386;-80
2021/08/06 01:35:38;;;;;;;3.97;2.40;;;;;;;;;;4995155;28;20414;-81
2021/08/06 01:38:04;;;;;;;2.93;2.63;;;;;;;;;;4995356;28;20869;-81
2021/08/06 01:40:39;;;;;;;2.47;2.27;;;;;;;;;;4995329;28;20440;-81
2021/08/06 01:43:12;;;;;;;3.33;2.63;;;;;;;;;;4994453;28;20449;-80
2021/08/06 01:45:41;;;;;;;4.40;2.73;;;;;;;;;;4994932;28;20492;-81
2021/08/06 01:48:10;;;;;;;4.90;2.80;;;;;;;;;;4994908;28;20466;-80
2021/08/06 01:50:38;;;;;;;4.70;2.30;;;;;;;;;;4995048;28;20435;-80
2021/08/06 01:53:07;;;;;;;3.83;2.77;;;;;;;;;;4994784;28;20412;-80
2021/08/06 02:00:59;;;;;;;;;;;;;;;;;;;;;
2021/08/06 02:06:37;;;;;;;6.60;2.30;;;;;;;;;;5013964;28;20532;-80
2021/08/06 02:09:09;;;;;;;3.27;2.70;;;;;;;;;;5014273;28;20410;-80
2021/08/06 02:11:35;;;;;;;2.87;2.60;;;;;;;;;;5014235;28;20419;-81
2021/08/06 02:14:01;;;;;;;3.10;2.70;;;;;;;;;;5013814;28;20376;-82
2021/08/06 02:16:27;;;;;;;3.07;2.53;;;;;;;;;;4996443;28;20496;-80
2021/08/06 02:18:55;;;;;;;3.70;2.80;;;;;;;;;;5014118;28;20436;-79
2021/08/06 02:21:25;;;;;;;3.30;3.00;;;;;;;;;;5014011;28;20465;-79
2021/08/06 02:23:52;;;;;;;4.40;3.60;;;;;;;;;;5013642;28;20834;-80
2021/08/06 02:26:19;;;;;;;3.80;3.17;;;;;;;;;;5013928;28;20434;-80
2021/08/06 02:28:46;;;;;;;3.27;2.97;;;;;;;;;;5014038;28;20943;-79
2021/08/06 02:31:12;;;;;;;3.27;2.97;;;;;;;;;;5013893;28;20988;-79
2021/08/06 02:33:39;;;;;;;3.93;3.30;;;;;;;;;;5013534;28;20421;-80
2021/08/06 02:36:05;;;;;;;3.93;3.30;;;;;;;;;;5013722;28;20408;-80
2021/08/06 02:38:31;;;;;;;3.93;3.37;;;;;;;;;;5014221;28;20405;-80
2021/08/06 02:40:57;;;;;;;5.63;3.60;;;;;;;;;;5013945;28;20402;-79
2021/08/06 02:43:23;;;;;;;5.07;3.57;;;;;;;;;;5013462;28;20384;-79
2021/08/06 02:45:50;;;;;;;5.07;4.40;;;;;;;;;;5013616;28;20502;-79
2021/08/06 02:48:16;;;;;;;4.03;3.27;;;;;;;;;;5013623;28;20388;-78
2021/08/06 02:50:43;;;;;;;5.27;3.70;;;;;;;;;;5013534;28;20435;-79
2021/08/06 02:53:09;;;;;;;4.10;3.77;;;;;;;;;;5012586;28;20410;-78
2021/08/06 02:55:35;;;;;;;4.77;3.47;;;;;;;;;;5013409;28;20404;-78
2021/08/06 02:58:01;;;;;;;3.57;3.27;;;;;;;;;;5013636;28;20770;-79
2021/08/06 03:00:27;;;;;;;3.80;3.50;;;;;;;;;;5013203;28;20400;-79
2021/08/06 03:02:53;;;;;;;5.13;3.20;;;;;;;;;;5013232;28;20436;-78
2021/08/06 03:05:19;;;;;;;4.27;3.63;;;;;;;;;;5013494;28;20442;-79
2021/08/06 03:07:49;;;;;;;4.10;3.80;;;;;;;;;;5013578;28;20388;-79
2021/08/06 03:10:18;;;;;;;5.30;3.43;;;;;;;;;;5013233;28;20469;-80
2021/08/06 03:12:44;;;;;;;4.40;3.63;;;;;;;;;;5013135;28;20417;-81
2021/08/06 03:15:10;;;;;;;4.43;4.03;;;;;;;;;;5013311;28;20404;-79
2021/08/06 03:17:38;;;;;;;5.50;3.60;;;;;;;;;;5013254;28;20453;-80
2021/08/06 03:20:04;;;;;;;7.63;3.53;;;;;;;;;;5013316;28;20823;-80
2021/08/06 03:22:30;;;;;;;5.10;3.43;;;;;;;;;;5013211;28;20776;-80
2021/08/06 03:24:57;;;;;;;6.73;3.30;;;;;;;;;;4995576;28;20433;-80
2021/08/06 03:27:22;;;;;;;7.30;4.07;;;;;;;;;;5013215;28;20425;-80
2021/08/06 03:29:48;;;;;;;3.33;2.93;;;;;;;;;;5013030;28;20537;-80
2021/08/06 03:32:14;;;;;;;4.90;3.93;;;;;;;;;;5013040;28;20929;-81
2021/08/06 03:37:16;;;;;;;5.43;3.50;;;;;;;;;;5065985;23;20616;-80
2021/08/06 03:39:42;;;;;;;4.97;3.77;;;;;;;;;;5032944;28;20910;-80
2021/08/06 03:42:08;;;;;;;5.47;3.90;;;;;;;;;;5032849;28;20450;-80
2021/08/06 03:44:35;;;;;;;6.87;3.87;;;;;;;;;;5014612;28;20456;-81
2021/08/06 03:47:01;;;;;;;3.23;2.90;;;;;;;;;;5015138;28;20913;-80
2021/08/06 03:49:27;;;;;;;4.67;3.20;;;;;;;;;;5032665;28;20467;-80
2021/08/06 03:51:53;;;;;;;4.50;3.40;;;;;;;;;;5033034;28;20878;-80
2021/08/06 03:54:19;;;;;;;2.97;2.70;;;;;;;;;;5032277;28;20412;-81
2021/08/06 03:56:45;;;;;;;4.20;3.37;;;;;;;;;;5032500;28;20455;-81
2021/08/06 03:59:11;;;;;;;3.83;3.30;;;;;;;;;;5032701;28;20405;-80
2021/08/06 04:01:37;;;;;;;4.33;3.67;;;;;;;;;;5032635;28;20409;-80
2021/08/06 04:04:03;;;;;;;5.30;3.27;;;;;;;;;;5032405;28;20741;-81
2021/08/06 04:06:29;;;;;;;4.63;3.10;;;;;;;;;;5018096;28;20988;-81
2021/08/06 04:08:55;;;;;;;3.77;3.10;;;;;;;;;;5036283;28;20448;-80
2021/08/06 04:11:21;;;;;;;3.80;3.13;;;;;;;;;;5036468;28;20439;-81
2021/08/06 04:13:48;;;;;;;4.70;3.27;;;;;;;;;;5035884;28;20939;-80
2021/08/06 04:16:13;;;;;;;3.60;3.30;;;;;;;;;;5036161;28;20506;-81
2021/08/06 04:18:39;;;;;;;5.10;3.47;;;;;;;;;;5036147;28;20391;-81
2021/08/06 04:21:05;;;;;;;3.60;3.30;;;;;;;;;;5035958;28;20819;-81
2021/08/06 04:23:31;;;;;;;3.67;3.27;;;;;;;;;;5035782;28;20417;-81
2021/08/06 04:25:57;;;;;;;4.30;3.50;;;;;;;;;;5035982;28;20454;-81
2021/08/06 04:28:23;;;;;;;4.00;3.60;;;;;;;;;;5035934;28;20511;-81
2021/08/06 04:30:50;;;;;;;3.17;2.87;;;;;;;;;;5035665;28;20456;-81
2021/08/06 04:33:16;;;;;;;4.03;3.73;;;;;;;;;;5035384;28;20416;-81
2021/08/06 04:35:42;;;;;;;4.57;4.00;;;;;;;;;;5035593;28;20458;-81
2021/08/06 04:38:08;;;;;;;8.33;4.30;;;;;;;;;;5035780;28;20492;-81
2021/08/06 04:40:34;;;;;;;4.80;3.77;;;;;;;;;;5035735;28;20849;-81
2021/08/06 04:43:00;;;;;;;4.33;3.90;;;;;;;;;;5035253;28;20388;-81
2021/08/06 04:45:26;;;;;;;3.90;3.40;;;;;;;;;;5035541;28;20411;-81
2021/08/06 04:47:55;;;;;;;4.20;3.80;;;;;;;;;;5035718;28;20462;-81
2021/08/06 04:50:22;;;;;;;5.10;3.80;;;;;;;;;;5035484;28;20435;-80
2021/08/06 04:52:48;;;;;;;4.43;3.63;;;;;;;;;;5035512;28;20416;-81
2021/08/06 04:55:14;;;;;;;3.73;3.40;;;;;;;;;;5035853;28;20429;-80
2021/08/06 04:57:41;;;;;;;6.13;3.80;;;;;;;;;;5035656;28;20425;-80
2021/08/06 05:00:09;;;;;;;4.60;3.23;;;;;;;;;;5035392;28;20799;-81
2021/08/06 05:02:35;;;;;;;4.67;3.70;;;;;;;;;;5035468;28;20444;-81
2021/08/06 05:05:02;;;;;;;3.90;3.23;;;;;;;;;;5035039;28;20425;-81
2021/08/06 05:07:28;;;;;;;6.77;4.03;;;;;;;;;;5035237;28;20452;-81
2021/08/06 05:09:55;;;;;;;5.50;3.53;;;;;;;;;;5035222;28;20449;-81
2021/08/06 05:12:21;;;;;;;4.90;3.37;;;;;;;;;;5035152;28;20769;-79
2021/08/06 05:14:47;;;;;;;3.83;3.53;;;;;;;;;;5034775;28;20479;-79
2021/08/06 05:17:13;;;;;;;9.43;3.37;;;;;;;;;;5034082;28;20739;-80
2021/08/06 05:19:39;;;;;;;4.83;3.43;;;;;;;;;;5034888;28;20762;-80
2021/08/06 05:22:06;;;;;;;5.33;3.37;;;;;;;;;;5035017;28;20416;-79
2021/08/06 05:24:32;;;;;;;4.73;4.27;;;;;;;;;;5034585;28;20522;-79
2021/08/06 05:26:58;;;;;;;5.30;3.40;;;;;;;;;;5034972;28;20424;-78
2021/08/06 05:29:24;;;;;;;4.07;3.20;;;;;;;;;;5034664;28;20472;-80
2021/08/06 05:31:50;;;;;;;6.90;3.97;;;;;;;;;;5034864;28;20417;-80
2021/08/06 05:34:16;;;;;;;4.17;3.70;;;;;;;;;;5034286;28;20475;-79
2021/08/06 05:36:42;;;;;;;4.00;3.50;;;;;;;;;;5034650;28;20491;-79
2021/08/06 05:39:08;;;;;;;6.43;3.60;;;;;;;;;;5034676;28;20749;-78
2021/08/06 05:41:34;;;;;;;9.80;3.70;;;;;;;;;;5034503;28;20488;-78
2021/08/06 05:44:00;;;;;;;5.80;3.23;;;;;;;;;;5034234;28;20509;-79
2021/08/06 05:46:26;;;;;;;3.90;3.60;;;;;;;;;;5034407;28;20520;-79
2021/08/06 05:48:52;;;;;;;5.90;3.53;;;;;;;;;;5034529;28;20409;-78
2021/08/06 05:51:18;;;;;;;6.63;3.20;;;;;;;;;;5034218;28;20806;-78
2021/08/06 05:53:44;;;;;;;4.63;3.37;;;;;;;;;;5033980;28;20421;-80
2021/08/06 05:56:10;;;;;;;4.87;3.80;;;;;;;;;;5034447;28;20479;-79
2021/08/06 05:58:36;;;;;;;5.27;3.20;;;;;;;;;;5033115;28;20942;-79
2021/08/06 06:01:02;;;;;;;7.47;4.13;;;;;;;;;;5034495;28;20417;-79
2021/08/06 06:03:28;;;;;;;4.03;3.63;;;;;;;;;;5033798;28;20417;-80
2021/08/06 06:05:54;;;;;;;4.00;3.60;;;;;;;;;;5033971;28;20443;-79
2021/08/06 06:08:20;;;;;;;3.57;3.27;;;;;;;;;;5034189;28;20425;-80
2021/08/06 06:10:46;;;;;;;3.83;3.50;;;;;;;;;;5034220;28;20460;-79
2021/08/06 06:13:12;;;;;;;3.90;3.10;;;;;;;;;;5033800;28;20444;-80
2021/08/06 06:15:38;;;;;;;5.30;3.37;;;;;;;;;;5033994;28;20483;-80
2021/08/06 06:18:04;;;;;;;3.47;3.10;;;;;;;;;;5033482;28;20415;-80
2021/08/06 06:20:30;;;;;;;5.00;3.63;;;;;;;;;;5033511;28;20387;-80
2021/08/06 06:22:56;;;;;;;6.73;3.57;;;;;;;;;;5033637;28;20839;-80
2021/08/06 06:25:22;;;;;;;3.50;3.07;;;;;;;;;;5033588;28;20433;-79
2021/08/06 06:28:02;;;;;;;3.93;2.83;;;;;;;;;;5033523;28;20416;-79
2021/08/06 06:30:29;;;;;;;4.97;2.60;;;;;;;;;;5033603;28;20468;-81
2021/08/06 06:32:56;;;;;;;3.40;2.60;;;;;;;;;;5033745;28;20395;-80
2021/08/06 06:35:23;;;;;;;2.60;2.40;;;;;;;;;;5033350;28;20419;-79
2021/08/06 06:37:49;;;;;;;4.13;2.30;;;;;;;;;;5033543;28;20413;-80
2021/08/06 06:40:16;;;;;;;4.33;3.03;;;;;;;;;;5015878;28;20482;-80
2021/08/06 06:42:43;;;;;;;3.17;2.80;;;;;;;;;;5015808;28;20836;-80
2021/08/06 06:45:12;;;;;;;2.30;2.10;;;;;;;;;;5033478;28;20469;-81
2021/08/06 06:47:39;;;;;;;3.70;2.03;;;;;;;;;;5015685;28;20387;-81
2021/08/06 06:50:07;;;;;;;4.03;2.10;;;;;;;;;;5015511;28;21346;-81
2021/08/06 06:52:33;;;;;;;1.70;1.60;;;;;;;;;;5015851;28;20637;-82
2021/08/06 06:54:59;;;;;;;3.30;1.83;;;;;;;;;;5015285;28;20448;-81
2021/08/06 06:57:25;;;;;;;4.80;2.33;;;;;;;;;;4999542;28;20436;-80
2021/08/06 06:59:58;;;;;;;2.90;1.80;;;;;;;;;;5033413;28;20395;-80
2021/08/06 07:02:30;;;;;;;2.13;1.77;;;;;;;;;;5033411;28;20424;-80
2021/08/06 07:04:56;;;;;;;3.90;1.70;;;;;;;;;;5032913;28;20443;-80
2021/08/06 07:07:23;;;;;;;2.50;2.23;;;;;;;;;;5033204;28;20486;-80
2021/08/06 07:09:49;;;;;;;2.50;1.40;;;;;;;;;;5033317;28;20954;-80
2021/08/06 07:12:15;;;;;;;1.63;1.47;;;;;;;;;;5015507;28;20465;-80
2021/08/06 07:14:41;;;;;;;1.70;1.40;;;;;;;;;;5032915;28;20484;-80
2021/08/06 07:17:07;;;;;;;3.97;1.53;;;;;;;;;;4999127;28;20391;-80
2021/08/06 07:19:33;;;;;;;1.73;1.63;;;;;;;;;;5015323;28;20395;-77
2021/08/06 07:21:59;;;;;;;1.87;1.77;;;;;;;;;;5015506;28;20433;-79
2021/08/06 07:27:04;;;;;;;1.60;1.50;;;;;;;;;;5063466;23;20492;-79
2021/08/06 07:29:32;;;;;;;2.37;1.77;;;;;;;;;;5013174;28;20432;-79
2021/08/06 07:32:01;;;;;;;1.70;1.40;;;;;;;;;;5013955;28;20467;-79
2021/08/06 07:34:27;;;;;;;1.70;1.37;;;;;;;;;;5012755;28;20384;-79
2021/08/06 07:36:53;;;;;;;3.07;1.30;;;;;;;;;;5013248;28;20472;-79
2021/08/06 07:39:22;;;;;;;1.77;1.30;;;;;;;;;;5013276;28;20497;-79
2021/08/06 07:41:48;;;;;;;2.50;1.20;;;;;;;;;;5017123;28;20839;-79
2021/08/06 07:46:42;;;;;;;2.40;1.40;;;;;;;;;;4996158;28;20445;-79
2021/08/06 07:49:08;;;;;;;1.87;1.37;;;;;;;;;;4997323;28;20439;-83
2021/08/06 07:51:55;;;;;;;1.30;1.20;;;;;;;;;;4997571;28;20415;-82
2021/08/06 08:18:20;;;;;;;3.50;1.47;;;;;;;;;;5016584;28;20929;-82
2021/08/06 08:20:47;;;;;;;1.33;1.10;;;;;;;;;;5016196;28;20431;-78
2021/08/06 08:23:13;;;;;;;10.63;2.10;;;;;;;;;;4998442;28;20439;-82
2021/08/06 08:25:39;;;;;;;3.37;2.10;;;;;;;;;;5016036;28;20440;-82
2021/08/06 08:28:06;;;;;;;7.03;2.17;;;;;;;;;;4998532;28;20433;-81
2021/08/06 08:30:32;;;;;;;3.63;2.20;;;;;;;;;;4998741;28;20476;-82
2021/08/06 08:32:58;;;;;;;5.37;2.60;;;;;;;;;;5015952;28;20863;-81
2021/08/06 08:35:24;;;;;;;6.90;2.30;;;;;;;;;;5016147;28;20483;-81
2021/08/06 08:37:50;;;;;;;6.97;2.90;;;;;;;;;;5015979;28;20381;-82
2021/08/06 08:40:16;;;;;;;3.70;2.20;;;;;;;;;;5015882;28;20497;-81
2021/08/06 08:42:44;;;;;;;4.77;3.10;;;;;;;;;;5015804;28;20807;-80
2021/08/06 08:45:10;;;;;;;2.93;2.10;;;;;;;;;;5015478;28;20506;-80
2021/08/06 08:47:37;;;;;;;3.70;2.10;;;;;;;;;;5015734;28;20413;-80
2021/08/06 08:50:05;;;;;;;5.03;2.37;;;;;;;;;;4998075;28;20884;-80
2021/08/06 08:52:31;;;;;;;4.63;2.33;;;;;;;;;;5014508;28;20789;-80
2021/08/06 08:54:57;;;;;;;3.53;1.90;;;;;;;;;;5015209;28;20828;-79
2021/08/06 08:57:24;;;;;;;9.27;2.50;;;;;;;;;;5015483;28;21032;-78
2021/08/06 08:59:50;;;;;;;2.57;2.07;;;;;;;;;;5015632;28;20755;-79
2021/08/06 09:02:16;;;;;;;4.70;2.03;;;;;;;;;;5015573;28;20421;-79
2021/08/06 09:04:48;;;;;;;1.60;1.50;;;;;;;;;;5015268;28;20408;-81
2021/08/06 09:07:32;;;;;;;3.80;2.23;;;;;;;;;;5015437;28;20925;-79
2021/08/06 09:10:08;;;;;;;3.57;2.10;;;;;;;;;;5015105;28;20432;-79
2021/08/06 09:12:51;;;;;;;2.30;1.80;;;;;;;;;;5015371;28;20468;-79
2021/08/06 09:15:18;;;;;;;2.43;2.20;;;;;;;;;;5008998;28;20507;-80
2021/08/06 09:17:44;;;;;;;4.07;2.57;;;;;;;;;;5014711;28;20416;-80
2021/08/06 09:20:11;;;;;;;1.50;1.40;;;;;;;;;;4997185;28;20432;-80
2021/08/06 09:22:40;;;;;;;2.37;1.80;;;;;;;;;;5015172;28;20435;-80
2021/08/06 09:25:12;;;;;;;2.43;1.73;;;;;;;;;;5014856;28;20401;-80
2021/08/06 09:27:47;;;;;;;3.60;1.60;;;;;;;;;;5015077;28;20406;-80
2021/08/06 09:30:14;;;;;;;3.27;2.10;;;;;;;;;;5014985;28;20542;-80
2021/08/06 09:32:48;;;;;;;2.70;1.87;;;;;;;;;;5014987;28;20384;-80
2021/08/06 09:35:15;;;;;;;3.03;2.10;;;;;;;;;;5014895;28;20436;-81
2021/08/06 09:37:41;;;;;;;4.20;2.47;;;;;;;;;;5014821;28;20392;-80
2021/08/06 09:40:12;;;;;;;2.07;1.70;;;;;;;;;;5014891;28;20447;-81
2021/08/06 09:42:39;;;;;;;6.90;2.30;;;;;;;;;;5014694;28;20380;-81
2021/08/06 09:45:07;;;;;;;3.60;1.93;;;;;;;;;;5014209;28;20771;-80
2021/08/06 09:47:37;;;;;;;3.10;1.93;;;;;;;;;;5014466;28;20410;-81
2021/08/06 09:50:07;;;;;;;5.80;2.30;;;;;;;;;;5014655;28;20848;-81
2021/08/06 09:52:35;;;;;;;2.90;1.83;;;;;;;;;;4997032;28;20905;-81
2021/08/06 09:55:02;;;;;;;2.13;1.63;;;;;;;;;;5014251;28;20909;-80
2021/08/06 09:57:28;;;;;;;2.93;1.80;;;;;;;;;;5014323;28;20432;-79
2021/08/06 09:59:55;;;;;;;3.23;1.73;;;;;;;;;;5014614;28;20721;-80
2021/08/06 10:02:22;;;;;;;4.00;2.03;;;;;;;;;;5014380;28;20884;-80
2021/08/06 10:07:28;;;;;;;4.13;1.90;;;;;;;;;;5476062;23;21058;-80
2021/08/06 10:10:36;;;;;;;5.17;1.70;;;;;;;;;;5033928;28;20491;-80
2021/08/06 10:14:05;;;;;;;2.70;1.63;;;;;;;;;;4915158;29;20558;-80
2021/08/06 10:19:46;;;;;;;1.70;1.60;;;;;;;;;;5053731;28;20461;-80
2021/08/06 10:22:15;;;;;;;2.07;1.60;;;;;;;;;;5035504;28;20430;-80
2021/08/06 10:27:45;;;;;;;2.87;1.90;;;;;;;;;;5011810;28;20480;-80
2021/08/06 10:30:22;;;;;;;2.60;1.63;;;;;;;;;;5013808;28;20431;-80
2021/08/06 10:33:06;;;;;;;8.33;2.37;;;;;;;;;;5013560;28;20410;-80
2021/08/06 10:35:48;;;;;;;3.70;1.60;;;;;;;;;;5013605;28;20393;-80
2021/08/06 10:38:15;;;;;;;2.47;1.60;;;;;;;;;;5013874;28;20805;-79
2021/08/06 10:40:41;;;;;;;5.13;1.80;;;;;;;;;;5013849;28;20425;-80
2021/08/06 10:43:12;;;;;;;5.03;1.73;;;;;;;;;;5013418;28;20532;-79
2021/08/06 10:45:47;;;;;;;2.70;1.50;;;;;;;;;;5013467;28;20831;-79
2021/08/06 10:48:32;;;;;;;2.33;1.50;;;;;;;;;;5013641;28;20876;-79
2021/08/06 10:51:17;;;;;;;4.33;1.77;;;;;;;;;;5013570;28;20527;-80
2021/08/06 10:53:43;;;;;;;2.50;1.43;;;;;;;;;;5013295;28;20398;-80
2021/08/06 10:56:18;;;;;;;2.63;1.80;;;;;;;;;;5013435;28;20883;-81
2021/08/06 10:58:54;;;;;;;4.13;2.00;;;;;;;;;;5013532;28;20391;-78
2021/08/06 11:01:26;;;;;;;3.33;1.63;;;;;;;;;;5013652;28;20405;-79
2021/08/06 11:03:54;;;;;;;7.03;2.30;;;;;;;;;;5009573;28;20440;-79
2021/08/06 11:06:39;;;;;;;3.67;1.70;;;;;;;;;;5010294;28;20511;-80
2021/08/06 11:09:08;;;;;;;2.30;1.53;;;;;;;;;;5011012;28;20376;-80
2021/08/06 11:11:42;;;;;;;1.77;1.30;;;;;;;;;;5010688;28;20472;-79
2021/08/06 11:14:10;;;;;;;2.20;1.33;;;;;;;;;;5010199;28;20436;-79
2021/08/06 11:16:56;;;;;;;5.00;1.67;;;;;;;;;;5010259;28;20460;-79
2021/08/06 11:19:27;;;;;;;4.23;1.83;;;;;;;;;;5011204;28;20549;-78
2021/08/06 11:21:53;;;;;;;2.40;1.80;;;;;;;;;;5011632;28;20424;-78
2021/08/06 11:24:19;;;;;;;3.27;1.40;;;;;;;;;;5011227;28;20406;-78
2021/08/06 11:26:51;;;;;;;4.00;1.67;;;;;;;;;;5011360;28;20402;-80
2021/08/06 11:29:18;;;;;;;4.10;1.30;;;;;;;;;;5012904;28;20406;-78
2021/08/06 11:31:44;;;;;;;1.43;0.90;;;;;;;;;;5013230;28;20947;-78
2021/08/06 11:34:13;;;;;;;1.83;1.07;;;;;;;;;;5012615;28;20475;-79
2021/08/06 11:36:39;;;;;;;2.23;1.00;;;;;;;;;;4995815;28;20911;-78
2021/08/06 11:39:13;;;;;;;1.50;0.97;;;;;;;;;;4995571;28;20434;-79
2021/08/06 11:41:47;;;;;;;1.50;0.90;;;;;;;;;;5013093;28;20732;-77
2021/08/06 11:44:16;;;;;;;1.30;1.13;;;;;;;;;;5012583;28;20420;-78
2021/08/06 11:46:53;;;;;;;2.30;1.00;;;;;;;;;;5013120;28;20409;-78
2021/08/06 11:49:19;;;;;;;1.33;0.87;;;;;;;;;;5013073;28;20405;-79
2021/08/06 11:51:53;;;;;;;1.77;0.87;;;;;;;;;;4995620;28;20422;-78
2021/08/06 11:54:19;;;;;;;3.07;1.03;;;;;;;;;;5012286;28;20456;-79
2021/08/06 11:56:55;;;;;;;2.37;1.20;;;;;;;;;;4995647;28;20398;-79
2021/08/06 11:59:22;;;;;;;1.23;0.87;;;;;;;;;;5013017;28;20401;-79
2021/08/06 12:01:48;;;;;;;1.40;1.03;;;;;;;;;;4995579;28;20389;-78
2021/08/06 12:04:14;;;;;;;1.20;1.00;;;;;;;;;;4995003;28;20379;-78
2021/08/06 12:06:44;;;;;;;3.00;1.63;;;;;;;;;;5013015;28;20404;-78
2021/08/06 12:09:10;;;;;;;1.40;0.87;;;;;;;;;;5012939;28;20497;-78
2021/08/06 12:11:43;;;;;;;1.20;0.87;;;;;;;;;;5012786;28;20480;-79
2021/08/06 12:14:10;;;;;;;1.67;1.03;;;;;;;;;;5012570;28;20471;-79
2021/08/06 12:16:40;;;;;;;1.83;1.30;;;;;;;;;;4995182;28;20923;-79
2021/08/06 12:19:07;;;;;;;1.00;0.90;;;;;;;;;;5012789;28;20405;-79
2021/08/06 12:21:38;;;;;;;1.00;0.90;;;;;;;;;;4995366;28;20428;-78
2021/08/06 12:24:12;;;;;;;1.83;1.07;;;;;;;;;;4994950;28;20517;-79
2021/08/06 12:26:45;;;;;;;1.30;1.20;;;;;;;;;;5014626;28;20418;-80
2021/08/06 12:29:16;;;;;;;2.20;1.50;;;;;;;;;;5016536;28;20961;-79
2021/08/06 12:31:54;;;;;;;4.03;1.40;;;;;;;;;;5016238;28;20894;-79
2021/08/06 12:34:24;;;;;;;2.23;1.07;;;;;;;;;;5015840;28;20404;-78
2021/08/06 12:36:54;;;;;;;2.77;1.33;;;;;;;;;;5016073;28;20401;-78
2021/08/06 12:39:24;;;;;;;2.60;1.20;;;;;;;;;;5015827;28;20460;-79
2021/08/06 12:41:53;;;;;;;7.13;1.50;;;;;;;;;;4999234;28;20853;-79
2021/08/06 12:44:21;;;;;;;1.43;1.30;;;;;;;;;;5015444;28;20489;-79
2021/08/06 12:46:56;;;;;;;1.77;1.60;;;;;;;;;;5015731;28;20906;-77
2021/08/06 12:49:29;;;;;;;1.37;1.20;;;;;;;;;;4998264;28;20918;-78
2021/08/06 12:52:18;;;;;;;2.80;1.10;;;;;;;;;;5015564;28;20469;-79
2021/08/06 12:55:03;;;;;;;5.83;1.40;;;;;;;;;;4989926;28;20441;-79
2021/08/06 12:57:38;;;;;;;3.33;1.30;;;;;;;;;;5015739;28;20437;-79
2021/08/06 13:00:23;;;;;;;2.57;1.63;;;;;;;;;;5015750;28;20500;-77
2021/08/06 13:02:56;;;;;;;2.27;1.40;;;;;;;;;;5015242;28;20410;-77
2021/08/06 13:05:28;;;;;;;2.20;1.33;;;;;;;;;;5015525;28;20426;-79
2021/08/06 13:07:55;;;;;;;1.60;1.27;;;;;;;;;;4997905;28;20840;-78
2021/08/06 13:10:28;;;;;;;1.33;1.10;;;;;;;;;;5015275;28;20464;-78
2021/08/06 13:12:54;;;;;;;2.70;1.63;;;;;;;;;;5015216;28;20401;-78
2021/08/06 13:15:20;;;;;;;1.13;1.03;;;;;;;;;;5015419;28;20451;-77
2021/08/06 13:17:49;;;;;;;3.23;1.40;;;;;;;;;;5015126;28;20801;-77
2021/08/06 13:20:18;;;;;;;1.33;1.03;;;;;;;;;;4981936;28;20910;-77
2021/08/06 13:22:44;;;;;;;1.70;1.47;;;;;;;;;;5014952;28;20381;-78
2021/08/06 13:28:36;;;;;;;;;;;;;;;;;;;;;
2021/08/06 13:31:02;;;;;;;1.80;1.50;;;;;;;;;;4916036;29;20448;-77
2021/08/06 13:39:51;;;;;;;1.90;1.37;;;;;;;;;;4971131;28;20822;-78
2021/08/06 13:42:18;;;;;;;4.40;1.50;;;;;;;;;;5014873;28;20428;-77
2021/08/06 13:44:46;;;;;;;1.90;1.03;;;;;;;;;;5014452;28;20437;-77
2021/08/06 13:47:23;;;;;;;1.40;1.10;;;;;;;;;;5014592;28;20769;-78
2021/08/06 13:49:58;;;;;;;1.50;1.20;;;;;;;;;;5014828;28;20413;-78
2021/08/06 13:52:48;;;;;;;1.37;1.13;;;;;;;;;;5014628;28;20413;-78
2021/08/06 13:55:13;;;;;;;1.60;1.03;;;;;;;;;;5054884;22;21289;-79
2021/08/06 13:57:39;;;;;;;2.03;1.40;;;;;;;;;;5014368;28;20410;-78
2021/08/06 14:00:06;;;;;;;2.13;1.00;;;;;;;;;;5014598;28;20414;-78
2021/08/06 14:02:33;;;;;;;1.20;1.00;;;;;;;;;;5014292;28;20468;-79
2021/08/06 14:04:59;;;;;;;2.13;1.20;;;;;;;;;;5014403;28;20470;-78
2021/08/06 14:07:25;;;;;;;2.33;0.93;;;;;;;;;;5014484;28;20425;-79
2021/08/06 14:09:51;;;;;;;1.63;1.23;;;;;;;;;;5014228;28;20512;-78
2021/08/06 14:12:17;;;;;;;1.67;1.00;;;;;;;;;;5014407;28;20922;-79
2021/08/06 14:14:43;;;;;;;1.63;1.07;;;;;;;;;;4979597;28;20442;-79
2021/08/06 14:17:10;;;;;;;2.00;0.87;;;;;;;;;;5014329;28;20890;-79
2021/08/06 14:19:36;;;;;;;1.80;0.90;;;;;;;;;;5014077;28;20389;-79
2021/08/06 14:22:02;;;;;;;1.40;0.87;;;;;;;;;;5014133;28;20441;-78
2021/08/06 14:24:28;;;;;;;1.40;1.00;;;;;;;;;;4996106;28;20410;-78
2021/08/06 14:26:54;;;;;;;2.57;0.90;;;;;;;;;;5014159;28;20489;-80
2021/08/06 14:29:21;;;;;;;1.83;1.10;;;;;;;;;;5014205;28;20541;-79
2021/08/06 14:31:47;;;;;;;1.53;1.20;;;;;;;;;;5013746;28;20485;-79
2021/08/06 14:34:13;;;;;;;1.80;1.07;;;;;;;;;;5013336;28;20501;-78
2021/08/06 14:36:39;;;;;;;2.07;0.80;;;;;;;;;;4996293;28;20421;-79
2021/08/06 14:39:05;;;;;;;2.03;1.00;;;;;;;;;;5013779;28;20405;-79
2021/08/06 14:41:36;;;;;;;1.40;1.20;;;;;;;;;;5013666;28;20402;-80
2021/08/06 14:44:03;;;;;;;1.93;0.90;;;;;;;;;;5013458;28;20452;-80
2021/08/06 14:46:30;;;;;;;2.00;0.90;;;;;;;;;;4995416;28;20524;-80
2021/08/06 14:48:56;;;;;;;1.67;1.20;;;;;;;;;;5013636;28;20859;-80
2021/08/06 14:51:22;;;;;;;2.13;1.10;;;;;;;;;;5013269;28;21000;-80
2021/08/06 14:53:48;;;;;;;1.13;0.80;;;;;;;;;;4979222;28;20417;-80
2021/08/06 14:56:14;;;;;;;2.00;1.27;;;;;;;;;;4995697;28;20996;-80
2021/08/06 14:58:41;;;;;;;1.03;0.93;;;;;;;;;;5013404;28;20422;-79
2021/08/06 15:01:13;;;;;;;1.20;0.90;;;;;;;;;;5013558;28;20869;-80
2021/08/06 15:03:39;;;;;;;1.40;0.90;;;;;;;;;;4995246;28;20988;-79
2021/08/06 15:06:05;;;;;;;6.97;2.00;;;;;;;;;;5013352;28;20445;-79
2021/08/06 15:08:31;;;;;;;1.13;0.87;;;;;;;;;;5013487;28;20761;-79
2021/08/06 15:10:57;;;;;;;2.17;0.80;;;;;;;;;;4995990;28;20480;-77
2021/08/06 15:13:23;;;;;;;1.27;0.83;;;;;;;;;;4995723;28;20513;-76
2021/08/06 15:15:49;;;;;;;1.93;0.70;;;;;;;;;;5317752;23;21024;-76
2021/08/06 15:18:15;;;;;;;0.90;0.70;;;;;;;;;;5013375;28;20420;-76
2021/08/06 15:20:41;;;;;;;1.07;0.77;;;;;;;;;;5013458;28;20836;-75
2021/08/06 15:23:08;;;;;;;0.80;0.70;;;;;;;;;;5013006;28;20507;-75
2021/08/06 15:25:34;;;;;;;1.10;0.93;;;;;;;;;;5013401;28;20436;-75
2021/08/06 15:28:00;;;;;;;1.00;0.83;;;;;;;;;;5013084;28;20405;-75
2021/08/06 15:30:26;;;;;;;1.40;1.07;;;;;;;;;;5013271;28;20467;-75
2021/08/06 15:32:52;;;;;;;0.93;0.80;;;;;;;;;;5013137;28;20414;-76
2021/08/06 15:35:18;;;;;;;1.00;0.83;;;;;;;;;;5012066;28;20482;-75
2021/08/06 15:37:44;;;;;;;1.87;1.20;;;;;;;;;;5011368;28;20475;-77
2021/08/06 15:40:11;;;;;;;1.37;0.70;;;;;;;;;;4993462;28;20427;-76
2021/08/06 15:42:36;;;;;;;4.10;0.93;;;;;;;;;;4993462;28;20502;-76
2021/08/06 15:45:04;;;;;;;2.00;1.00;;;;;;;;;;4993250;28;20521;-76
2021/08/06 15:47:30;;;;;;;1.30;0.97;;;;;;;;;;4993608;28;20425;-76
2021/08/06 15:49:56;;;;;;;4.23;1.17;;;;;;;;;;4993386;28;20778;-76
2021/08/06 15:52:22;;;;;;;2.60;0.73;;;;;;;;;;4993373;28;20413;-76
2021/08/06 15:54:48;;;;;;;1.37;0.90;;;;;;;;;;4993100;28;20960;-76